Emden — 3ERP5 — position and weather

sailwx.info

Track history (hours):
 
Tides and Currents Weather Stations Pressure Air Temp Water Temp Dewpoint Dewpoint Depression Visibility Wind Speed Wind Dir Waves Ship Positions

Emden

Last reported at 2016-Dec-07 15:34 UTC. Time now 2016-Dec-07 16:25 UTC.
Position N 43°45' W 003°51'.

Length 177 m; draft 7.6 m.

Type: Ship. MMSI: 355051000.

Date/timePositionNaut miles runAvg speedWind from/ knotsBaromVisibWave heightAir tempDewpointWater temp
2016-Dec-07 15:34N 43°45' W 003°51'83 2.8
2016-Dec-06 10:06N 45°03' W 004°29'1214.6
2016-Dec-06 09:17N 45°14' W 004°35'1314.7
2016-Dec-06 08:23N 45°26' W 004°41'1214.8
2016-Dec-06 07:33N 45°38' W 004°47'1414.4
2016-Dec-06 06:34N 45°52' W 004°53'1414.3
2016-Dec-06 05:33N 46°05' W 004°59'1414.3
2016-Dec-06 04:33N 46°19' W 005°06'1414.2
2016-Dec-06 03:33N 46°32' W 005°12'1414.2
2016-Dec-06 02:33N 46°46' W 005°19'1614.3
2016-Dec-06 01:25N 47°01' W 005°27'1414.4
2016-Dec-06 00:27N 47°15' W 005°33'1514.7
2016-Dec-05 23:26N 47°29' W 005°39'1315.1
2016-Dec-05 22:34N 47°42' W 005°45'1715.0
2016-Dec-05 21:24N 47°58' W 005°53'1214.4
2016-Dec-05 20:34N 48°09' W 005°59'1413.9
2016-Dec-05 19:31N 48°23' W 006°06'1612.8
2016-Dec-05 18:15N 48°39' W 006°05'2112.7
2016-Dec-05 16:33N 49°01' W 006°03'1313.1
2016-Dec-05 15:33N 49°14' W 006°02'6114.0
2016-Dec-05 11:13N 50°15' W 006°01'1114.1
2016-Dec-05 10:25N 50°26' W 006°01'1214.3
2016-Dec-05 09:33N 50°38' W 006°00'3015.2
2016-Dec-05 07:33N 51°09' W 005°59'1615.3
2016-Dec-05 06:32N 51°24' W 005°60'16 0.4
2016-Dec-03 16:33N 51°09' W 005°52'1413.7
2016-Dec-03 15:33N 50°55' W 005°53'1413.9
2016-Dec-03 14:33N 50°41' W 005°53'1413.8
2016-Dec-03 13:33N 50°28' W 005°54'1413.5
2016-Dec-03 12:33N 50°14' W 005°55'1413.3
2016-Dec-03 11:32N 50°01' W 005°54'1412.6
2016-Dec-03 10:27N 49°50' W 005°40'1514.2
2016-Dec-03 09:24N 49°50' W 005°17'1213.7
2016-Dec-03 08:33N 49°51' W 004°59'1313.5
2016-Dec-03 07:34N 49°53' W 004°39'1413.4
2016-Dec-03 06:33N 49°54' W 004°18'1313.7
2016-Dec-03 05:33N 49°56' W 003°57'1414.3
2016-Dec-03 04:34N 49°57' W 003°35'1515.3
2016-Dec-03 03:33N 49°59' W 003°11'1615.8
2016-Dec-03 02:34N 50°01' W 002°47'1815.9
2016-Dec-03 01:25N 50°07' W 002°20'1314.9
2016-Dec-03 00:33N 50°11' W 002°01'1313.4
2016-Dec-02 23:33N 50°14' W 001°41'1212.1
2016-Dec-02 22:33N 50°17' W 001°23'1111.3
2016-Dec-02 21:33N 50°20' W 001°05'1211.8
2016-Dec-02 20:33N 50°24' W 000°48'1313.4
2016-Dec-02 19:33N 50°27' W 000°28'1514.8
2016-Dec-02 18:33N 50°32' W 000°05'1615.6
2016-Dec-02 17:33N 50°36' E 000°18'1615.5
2016-Dec-02 16:31N 50°42' E 000°42'1914.5
2016-Dec-02 15:14N 50°53' E 001°05'913.2
2016-Dec-02 14:33N 50°58' E 001°17'1211.8
2016-Dec-02 13:33N 51°06' E 001°31'1212.1
2016-Dec-02 12:33N 51°14' E 001°45'1413.8
2016-Dec-02 11:34N 51°25' E 001°58'1615.6
2016-Dec-02 10:34N 51°37' E 002°15'1616.0
2016-Dec-02 09:33N 51°49' E 002°32'3315.1
2016-Dec-02 07:23N 52°15' E 003°04'6413.2
2016-Dec-02 02:33N 53°04' E 004°11'8710.8
2016-Dec-01 18:32N 53°37' E 006°26'1212.0
2016-Dec-01 17:33N 53°32' E 006°44'1414.1
2016-Dec-01 16:33N 53°21' E 006°59'7 7.0
2016-Dec-01 15:33N 53°20' E 007°11'0 0.0
2016-Dec-01 14:30N 53°20' E 007°11'0 0.0
2016-Dec-01 13:33N 53°20' E 007°11'0 0.0
2016-Dec-01 12:33N 53°20' E 007°11'0 0.0
2016-Dec-01 11:33N 53°20' E 007°11'0 0.0
2016-Dec-01 10:33N 53°20' E 007°11'0 0.0
2016-Dec-01 09:33N 53°20' E 007°11'0 0.0
2016-Dec-01 08:33N 53°20' E 007°11'0 0.0
2016-Dec-01 07:33N 53°20' E 007°11'0 0.0
2016-Dec-01 06:27N 53°20' E 007°11'0 0.0
2016-Dec-01 05:33N 53°20' E 007°11'0 0.0
2016-Dec-01 04:33N 53°20' E 007°11'0 0.0
2016-Dec-01 03:33N 53°20' E 007°11'0 0.0
2016-Dec-01 02:30N 53°20' E 007°11'0 0.0
2016-Dec-01 01:30N 53°20' E 007°11'0 0.0
2016-Dec-01 00:33N 53°20' E 007°11'0 0.0
2016-Nov-30 23:33N 53°20' E 007°11'0 0.0
2016-Nov-30 22:33N 53°20' E 007°11'0 0.0
2016-Nov-30 21:33N 53°20' E 007°11'0 0.0
2016-Nov-30 20:33N 53°20' E 007°11'0 0.0
2016-Nov-30 19:33N 53°20' E 007°11'0 0.0
2016-Nov-30 18:33N 53°20' E 007°11'0 0.0
2016-Nov-30 17:33N 53°20' E 007°11'0 0.0
2016-Nov-30 16:30N 53°20' E 007°11'0 0.0
2016-Nov-30 15:33N 53°20' E 007°11'0 0.0
2016-Nov-30 14:30N 53°20' E 007°11'0 0.0
2016-Nov-30 13:30N 53°20' E 007°11'0 0.0
2016-Nov-30 12:33N 53°20' E 007°11'0 0.0
2016-Nov-30 11:33N 53°20' E 007°11'0 0.0
2016-Nov-30 10:33N 53°20' E 007°11'0 0.0
2016-Nov-30 09:33N 53°20' E 007°11'0 0.0
2016-Nov-30 08:33N 53°20' E 007°11'0 0.1
2016-Nov-30 07:34N 53°20' E 007°11'7 6.7
2016-Nov-30 06:33N 53°20' E 006°60'1312.9
2016-Nov-30 05:33N 53°31' E 006°47'1313.1
2016-Nov-30 04:32N 53°37' E 006°27'10 9.9
2016-Nov-30 03:33N 53°40' E 006°11'5 5.2
2016-Nov-30 02:33N 53°39' E 006°03'1 1.2
2016-Nov-30 01:19N 53°39' E 006°00'2 2.2
2016-Nov-30 00:33N 53°40' E 005°58'1212.0
2016-Nov-29 23:33N 53°36' E 005°39'1313.4
2016-Nov-29 22:33N 53°32' E 005°17'1313.3
2016-Nov-29 21:33N 53°27' E 004°56'2512.6
2016-Nov-29 19:33N 53°08' E 004°29'1313.5
2016-Nov-29 18:33N 52°56' E 004°18'1414.0
2016-Nov-29 17:33N 52°44' E 004°06'1414.3
2016-Nov-29 16:33N 52°34' E 003°49'1514.8
2016-Nov-29 15:33N 52°24' E 003°31'1515.2
2016-Nov-29 14:32N 52°13' E 003°14'1515.4
2016-Nov-29 13:32N 52°02' E 002°57'1515.4
2016-Nov-29 12:33N 51°50' E 002°41'1515.1
2016-Nov-29 11:33N 51°38' E 002°26'1515.2
2016-Nov-29 10:34N 51°26' E 002°12'1414.4
2016-Nov-29 09:33N 51°13' E 002°01'1312.8
2016-Nov-29 08:33N 51°05' E 001°45'1212.0
2016-Nov-29 07:33N 50°57' E 001°31'1412.2
2016-Nov-29 06:27N 50°45' E 001°23'5012.8
2016-Nov-29 02:33N 50°21' E 000°14'1313.2
2016-Nov-29 01:33N 50°18' W 000°06'1212.1
2016-Nov-29 00:33N 50°15' W 000°25'1111.4
2016-Nov-28 23:33N 50°12' W 000°42'1212.3
2016-Nov-28 22:33N 50°08' W 001°00'1313.3
2016-Nov-28 21:33N 50°05' W 001°20'1414.2
2016-Nov-28 20:34N 50°01' W 001°41'1414.5
2016-Nov-28 19:34N 49°58' W 002°03'2913.9
2016-Nov-28 17:27N 49°49' W 002°47'1413.1
2016-Nov-28 16:25N 49°44' W 003°06'1112.9
2016-Nov-28 15:33N 49°38' W 003°21'6312.0
2016-Nov-28 10:16N 49°07' W 004°46'810.6
2016-Nov-28 09:33N 49°04' W 004°56'1010.5
2016-Nov-28 08:33N 48°59' W 005°10'1110.8
2016-Nov-28 07:34N 48°52' W 005°24'  
Track history (hours):
 
Tides and Currents Weather Stations Pressure Air Temp Water Temp Dewpoint Dewpoint Depression Visibility Wind Speed Wind Dir Waves Ship Positions

Emden

Last reported at 2016-Dec-07 15:34 UTC. Time now 2016-Dec-07 16:25 UTC.
Position N 43°45' W 003°51'.

Length 177 m; draft 7.6 m.

Type: Ship. MMSI: 355051000.

Date/timePositionNaut miles runAvg speedWind from/ knotsBaromVisibWave heightAir tempDewpointWater temp
2016-Dec-07 15:34N 43°45' W 003°51'83 2.8
2016-Dec-06 10:06N 45°03' W 004°29'1214.6
2016-Dec-06 09:17N 45°14' W 004°35'1314.7
2016-Dec-06 08:23N 45°26' W 004°41'1214.8
2016-Dec-06 07:33N 45°38' W 004°47'1414.4
2016-Dec-06 06:34N 45°52' W 004°53'1414.3
2016-Dec-06 05:33N 46°05' W 004°59'1414.3
2016-Dec-06 04:33N 46°19' W 005°06'1414.2
2016-Dec-06 03:33N 46°32' W 005°12'1414.2
2016-Dec-06 02:33N 46°46' W 005°19'1614.3
2016-Dec-06 01:25N 47°01' W 005°27'1414.4
2016-Dec-06 00:27N 47°15' W 005°33'1514.7
2016-Dec-05 23:26N 47°29' W 005°39'1315.1
2016-Dec-05 22:34N 47°42' W 005°45'1715.0
2016-Dec-05 21:24N 47°58' W 005°53'1214.4
2016-Dec-05 20:34N 48°09' W 005°59'1413.9
2016-Dec-05 19:31N 48°23' W 006°06'1612.8
2016-Dec-05 18:15N 48°39' W 006°05'2112.7
2016-Dec-05 16:33N 49°01' W 006°03'1313.1
2016-Dec-05 15:33N 49°14' W 006°02'6114.0
2016-Dec-05 11:13N 50°15' W 006°01'1114.1
2016-Dec-05 10:25N 50°26' W 006°01'1214.3
2016-Dec-05 09:33N 50°38' W 006°00'3015.2
2016-Dec-05 07:33N 51°09' W 005°59'1615.3
2016-Dec-05 06:32N 51°24' W 005°60'16 0.4
2016-Dec-03 16:33N 51°09' W 005°52'1413.7
2016-Dec-03 15:33N 50°55' W 005°53'1413.9
2016-Dec-03 14:33N 50°41' W 005°53'1413.8
2016-Dec-03 13:33N 50°28' W 005°54'1413.5
2016-Dec-03 12:33N 50°14' W 005°55'1413.3
2016-Dec-03 11:32N 50°01' W 005°54'1412.6
2016-Dec-03 10:27N 49°50' W 005°40'1514.2
2016-Dec-03 09:24N 49°50' W 005°17'1213.7
2016-Dec-03 08:33N 49°51' W 004°59'1313.5
2016-Dec-03 07:34N 49°53' W 004°39'1413.4
2016-Dec-03 06:33N 49°54' W 004°18'1313.7
2016-Dec-03 05:33N 49°56' W 003°57'1414.3
2016-Dec-03 04:34N 49°57' W 003°35'1515.3
2016-Dec-03 03:33N 49°59' W 003°11'1615.8
2016-Dec-03 02:34N 50°01' W 002°47'1815.9
2016-Dec-03 01:25N 50°07' W 002°20'1314.9
2016-Dec-03 00:33N 50°11' W 002°01'1313.4
2016-Dec-02 23:33N 50°14' W 001°41'1212.1
2016-Dec-02 22:33N 50°17' W 001°23'1111.3
2016-Dec-02 21:33N 50°20' W 001°05'1211.8
2016-Dec-02 20:33N 50°24' W 000°48'1313.4
2016-Dec-02 19:33N 50°27' W 000°28'1514.8
2016-Dec-02 18:33N 50°32' W 000°05'1615.6
2016-Dec-02 17:33N 50°36' E 000°18'1615.5
2016-Dec-02 16:31N 50°42' E 000°42'1914.5
2016-Dec-02 15:14N 50°53' E 001°05'913.2
2016-Dec-02 14:33N 50°58' E 001°17'1211.8
2016-Dec-02 13:33N 51°06' E 001°31'1212.1
2016-Dec-02 12:33N 51°14' E 001°45'1413.8
2016-Dec-02 11:34N 51°25' E 001°58'1615.6
2016-Dec-02 10:34N 51°37' E 002°15'1616.0
2016-Dec-02 09:33N 51°49' E 002°32'3315.1
2016-Dec-02 07:23N 52°15' E 003°04'6413.2
2016-Dec-02 02:33N 53°04' E 004°11'8710.8
2016-Dec-01 18:32N 53°37' E 006°26'1212.0
2016-Dec-01 17:33N 53°32' E 006°44'1414.1
2016-Dec-01 16:33N 53°21' E 006°59'7 7.0
2016-Dec-01 15:33N 53°20' E 007°11'0 0.0
2016-Dec-01 14:30N 53°20' E 007°11'0 0.0
2016-Dec-01 13:33N 53°20' E 007°11'0 0.0
2016-Dec-01 12:33N 53°20' E 007°11'0 0.0
2016-Dec-01 11:33N 53°20' E 007°11'0 0.0
2016-Dec-01 10:33N 53°20' E 007°11'0 0.0
2016-Dec-01 09:33N 53°20' E 007°11'0 0.0
2016-Dec-01 08:33N 53°20' E 007°11'0 0.0
2016-Dec-01 07:33N 53°20' E 007°11'0 0.0
2016-Dec-01 06:27N 53°20' E 007°11'0 0.0
2016-Dec-01 05:33N 53°20' E 007°11'0 0.0
2016-Dec-01 04:33N 53°20' E 007°11'0 0.0
2016-Dec-01 03:33N 53°20' E 007°11'0 0.0
2016-Dec-01 02:30N 53°20' E 007°11'0 0.0
2016-Dec-01 01:30N 53°20' E 007°11'0 0.0
2016-Dec-01 00:33N 53°20' E 007°11'0 0.0
2016-Nov-30 23:33N 53°20' E 007°11'0 0.0
2016-Nov-30 22:33N 53°20' E 007°11'0 0.0
2016-Nov-30 21:33N 53°20' E 007°11'0 0.0
2016-Nov-30 20:33N 53°20' E 007°11'0 0.0
2016-Nov-30 19:33N 53°20' E 007°11'0 0.0
2016-Nov-30 18:33N 53°20' E 007°11'0 0.0
2016-Nov-30 17:33N 53°20' E 007°11'0 0.0
2016-Nov-30 16:30N 53°20' E 007°11'0 0.0
2016-Nov-30 15:33N 53°20' E 007°11'0 0.0
2016-Nov-30 14:30N 53°20' E 007°11'0 0.0
2016-Nov-30 13:30N 53°20' E 007°11'0 0.0
2016-Nov-30 12:33N 53°20' E 007°11'0 0.0
2016-Nov-30 11:33N 53°20' E 007°11'0 0.0
2016-Nov-30 10:33N 53°20' E 007°11'0 0.0
2016-Nov-30 09:33N 53°20' E 007°11'0 0.0
2016-Nov-30 08:33N 53°20' E 007°11'0 0.1
2016-Nov-30 07:34N 53°20' E 007°11'7 6.7
2016-Nov-30 06:33N 53°20' E 006°60'1312.9
2016-Nov-30 05:33N 53°31' E 006°47'1313.1
2016-Nov-30 04:32N 53°37' E 006°27'10 9.9
2016-Nov-30 03:33N 53°40' E 006°11'5 5.2
2016-Nov-30 02:33N 53°39' E 006°03'1 1.2
2016-Nov-30 01:19N 53°39' E 006°00'2 2.2
2016-Nov-30 00:33N 53°40' E 005°58'1212.0
2016-Nov-29 23:33N 53°36' E 005°39'1313.4
2016-Nov-29 22:33N 53°32' E 005°17'1313.3
2016-Nov-29 21:33N 53°27' E 004°56'2512.6
2016-Nov-29 19:33N 53°08' E 004°29'1313.5
2016-Nov-29 18:33N 52°56' E 004°18'1414.0
2016-Nov-29 17:33N 52°44' E 004°06'1414.3
2016-Nov-29 16:33N 52°34' E 003°49'1514.8
2016-Nov-29 15:33N 52°24' E 003°31'1515.2
2016-Nov-29 14:32N 52°13' E 003°14'1515.4
2016-Nov-29 13:32N 52°02' E 002°57'1515.4
2016-Nov-29 12:33N 51°50' E 002°41'1515.1
2016-Nov-29 11:33N 51°38' E 002°26'1515.2
2016-Nov-29 10:34N 51°26' E 002°12'1414.4
2016-Nov-29 09:33N 51°13' E 002°01'1312.8
2016-Nov-29 08:33N 51°05' E 001°45'1212.0
2016-Nov-29 07:33N 50°57' E 001°31'1412.2
2016-Nov-29 06:27N 50°45' E 001°23'5012.8
2016-Nov-29 02:33N 50°21' E 000°14'1313.2
2016-Nov-29 01:33N 50°18' W 000°06'1212.1
2016-Nov-29 00:33N 50°15' W 000°25'1111.4
2016-Nov-28 23:33N 50°12' W 000°42'1212.3
2016-Nov-28 22:33N 50°08' W 001°00'1313.3
2016-Nov-28 21:33N 50°05' W 001°20'1414.2
2016-Nov-28 20:34N 50°01' W 001°41'1414.5
2016-Nov-28 19:34N 49°58' W 002°03'2913.9
2016-Nov-28 17:27N 49°49' W 002°47'1413.1
2016-Nov-28 16:25N 49°44' W 003°06'1112.9
2016-Nov-28 15:33N 49°38' W 003°21'6312.0
2016-Nov-28 10:16N 49°07' W 004°46'810.6
2016-Nov-28 09:33N 49°04' W 004°56'1010.5
2016-Nov-28 08:33N 48°59' W 005°10'1110.8
2016-Nov-28 07:34N 48°52' W 005°24'  

Dump ship's entire track history